KSBN/SBN METAR and TAF weather

Enter ICAO airport designator
Station Type Date Time Source
KSBN METAR 2021/09/16 10:54 UTC NOAA

KSBN 161054Z 00000KT 10SM CLR 11/09 A3013 RMK AO2 SLP202 T01060089 $


Station Type Date Time Source
KSBN Decoded METAR 2021/09/16 10:54 UTC NOAA

SOUTH BEND REGIONAL AIRPORT, IN, United States (KSBN) 41-42N 086-19W 237M
Sep 16, 2021 - 06:54 AM EDT / 2021.09.16 1054 UTC
Wind: Calm:0
Visibility: 10 mile(s):0
Sky conditions: clear
Temperature: 51.1 F (10.6 C)
Dew Point: 48.0 F (8.9 C)
Relative Humidity: 89%
Pressure (altimeter): 30.13 in. Hg (1020 hPa)
ob: KSBN 161054Z 00000KT 10SM CLR 11/09 A3013 RMK AO2 SLP202 T01060089
cycle: 11

Station Type Date Time Source
KSBN TAF 2021/09/16 06:24 UTC NOAA

TAF KSBN 160523Z 1606/1706 10002KT P6SM SKC
FM161400 15006KT P6SM FEW040

Example: see airport list